Flight Track Log - Related Links

Times and Time Zones

All times are in EDT time to prevent confusion due to time zone crossing. See the UAL3740 flight status page for this flight to view local times or setup timezone preferences in your user account.

Time Position Orientation Groundspeed Altitude Reporting Facility
EDT Latitude Longitude Course Direction KTS MPH feet Rate Location/Type
Sat 08:21:20 AM 38.9667 -77.4333 360° North 150 173 1,900  Level Potomac TRACON
Sat 08:22:14 AM 39.0167 -77.4333 360° North 211 243 3,800 2,650 Climbing Potomac TRACON
Sat 08:23:20 AM 39.1000 -77.4333 360° North 247 284 7,200 2,826 Climbing Potomac TRACON
Sat 08:24:15 AM 39.1667 -77.4167 11° North 269 310 9,500 1,596 Climbing Potomac TRACON
Sat 08:25:09 AM 39.1833 -77.3333 76° East 341 392 10,100 1,050 Climbing Potomac TRACON
Sat 08:26:15 AM 39.1167 -77.2000 123° Southeast 393 452 11,600 1,800 Climbing Potomac TRACON
Sat 08:27:09 AM 39.0833 -77.0833 110° East 414 476 13,700 2,375 Climbing Potomac TRACON
Sat 08:29:27 AM 39.1058 -76.7553 85° East 434 499 19,200 2,364 Climbing Washington Center
Sat 08:30:27 AM 39.1175 -76.6083 84° East 423 487 21,500 1,600 Climbing Washington Center
Sat 08:31:27 AM 39.1311 -76.4506 84° East 428 493 22,400 750 Climbing Washington Center
Sat 08:32:27 AM 39.1428 -76.2819 85° East 448 516 23,000 250 Climbing Washington Center
Sat 08:33:27 AM 39.1667 -76.1028 80° East 480 552 22,900  Descending Washington Center
Sat 08:34:27 AM 39.1900 -75.9156 81° East 511 588 23,000 800 Climbing Washington Center
Sat 08:35:27 AM 39.2822 -75.7578 53° Northeast 517 595 24,500 1,500 Climbing Washington Center
Sat 08:36:27 AM 39.3947 -75.6183 44° Northeast 534 615 26,000 1,500 Climbing Washington Center
Sat 08:37:27 AM 39.5050 -75.4786 44° Northeast 539 620 27,500 1,500 Climbing Washington Center
Sat 08:38:27 AM 39.6133 -75.3383 45° Northeast 544 626 29,000 1,550 Climbing Washington Center
Sat 08:39:27 AM 39.7128 -75.2003 47° Northeast 539 620 30,600 1,650 Climbing Washington Center
Sat 08:40:27 AM 39.8228 -75.0403 48° Northeast 533 613 32,300 960 Climbing Washington Center
Sat 08:41:57 AM 39.9619 -74.8414 48° Northeast 532 612 33,000 278 Climbing New York Center
Sat 08:42:58 AM 40.0517 -74.6594 57° Northeast 532 612 33,000  Level New York Center
Sat 08:43:58 AM 40.1061 -74.5161 64° Northeast 540 621 33,000  Level New York Center
Sat 08:46:00 AM 40.2625 -74.1042 63° Northeast 602 693 33,000 -33 Level Boston Center
Sat 08:47:00 AM 40.3403 -73.9075 63° Northeast 574 661 32,900 -1,200 Descending Boston Center
Sat 08:48:00 AM 40.4069 -73.7236 64° Northeast 558 642 30,600 -2,500 Descending Boston Center
Sat 08:49:00 AM 40.4692 -73.5583 64° Northeast 553 636 27,900 -1,800 Descending Boston Center
Sat 08:50:00 AM 40.5292 -73.3875 65° Northeast 532 612 27,000 -600 Descending Boston Center
Sat 08:51:00 AM 40.5931 -73.2136 64° Northeast 522 601 26,700 -950 Descending Boston Center
Sat 08:52:00 AM 40.6586 -73.0336 64° Northeast 527 606 25,100 -1,550 Descending Boston Center
Sat 08:53:00 AM 40.7283 -72.8536 63° Northeast 532 612 23,600 -1,950 Descending Boston Center
Sat 08:54:00 AM 40.7997 -72.6567 64° Northeast 538 619 21,200 -2,500 Descending Boston Center
Sat 08:55:00 AM 40.8542 -72.4978 66° East 528 608 18,600 -2,800 Descending Boston Center
Sat 08:56:00 AM 40.9122 -72.3303 65° Northeast 517 595 15,600 -2,924 Descending Boston Center
Sat 08:56:59 AM 40.9683 -72.1761 64° Northeast 469 540 12,800 -2,300 Descending Boston Center
Sat 08:58:00 AM 41.0181 -72.0303 66° East 436 502 11,000 -843 Descending Boston Center
Sat 08:59:00 AM 41.0778 -71.8867 61° Northeast 421 484 11,100 -298 Climbing Boston Center
Sat 09:00:01 AM 41.1439 -71.7786 51° Northeast 393 452 10,400 -1,230 Descending Boston Center
Sat 09:01:02 AM 41.2139 -71.6703 49° Northeast 362 417 8,600 -1,686 Descending Boston Center
Sat 09:02:02 AM 41.2758 -71.5728 50° Northeast 349 402 7,000 -1,587 Descending Boston Center
Sat 09:03:03 AM 41.3314 -71.4808 51° Northeast 333 383 5,400 -1,488 Descending Boston Center
Sat 09:04:03 AM 41.3869 -71.3942 49° Northeast 306 352 4,000 -1,190 Descending Boston Center
Sat 09:05:04 AM 41.4425 -71.3214 44° Northeast 281 323 3,000 -984 Descending Boston Center
Sat 09:06:05 AM 41.4981 -71.2539 42° Northeast 269 310 2,000 -496 Descending Boston Center
Sat 09:07:05 AM 41.5583 -71.2556 359° North 198 228 2,000  Level Boston Center
Sat 09:08:06 AM 41.5942 -71.2908 324° Northwest 175 201 2,000  Level Boston Center
Sat 09:09:13 AM 41.6300 -71.3319 319° Northwest 167 192 2,000 -198 Level Boston Center
Sat 09:10:07 AM 41.6594 -71.3592 325° Northwest 136 157 1,600 -444 Descending Boston Center

Login

Don't have an account? Register now (free) for customized features, flight alerts, and more!